Time;durP1;ratioP1;P1;durP2;ratioP2;P2;SDS_P1;SDS_P2;PMS_P1;PMS_P2;Temp;Humidity;BMP_temperature;BMP_pressure;BME280_temperature;BME280_humidity;BME280_pressure;Samples;Min_cycle;Max_cycle;Signal;HPM_P1;HPM_P2
2023/07/19 00:00:06;;;;;;;5.15;2.60;;;;;;;17.02;75.59;101367.16;5053862;28;20031;-52
2023/07/19 00:02:31;;;;;;;8.63;2.90;;;;;;;17.00;76.00;101366.44;5062272;28;20432;-51
2023/07/19 00:04:56;;;;;;;5.05;2.80;;;;;;;16.89;75.68;101342.50;5061115;28;20280;-53
2023/07/19 00:07:21;;;;;;;5.28;2.85;;;;;;;16.94;75.75;101356.31;5057455;28;20036;-54
2023/07/19 00:09:47;;;;;;;10.40;3.45;;;;;;;16.96;76.29;101351.66;5058233;28;20047;-52
2023/07/19 00:12:12;;;;;;;5.32;2.83;;;;;;;16.88;75.29;101354.22;5056855;28;20032;-53
2023/07/19 00:14:38;;;;;;;6.57;2.88;;;;;;;16.85;76.84;101355.34;5057815;28;20393;-51
2023/07/19 00:17:03;;;;;;;5.70;2.97;;;;;;;16.82;77.31;101359.16;5061995;28;20123;-51
2023/07/19 00:19:28;;;;;;;5.82;2.83;;;;;;;16.79;76.99;101358.59;5057939;28;20036;-52
2023/07/19 00:21:54;;;;;;;5.22;2.75;;;;;;;16.77;77.36;101350.69;5058239;28;20100;-52
2023/07/19 00:24:19;;;;;;;6.35;2.97;;;;;;;16.76;77.54;101348.97;5058195;28;20072;-53
2023/07/19 00:26:45;;;;;;;6.72;2.63;;;;;;;16.71;77.62;101340.53;5063762;28;20025;-53
2023/07/19 00:29:10;;;;;;;3.47;2.25;;;;;;;16.75;78.14;101344.63;5060324;28;20036;-54
2023/07/19 00:31:35;;;;;;;4.18;2.30;;;;;;;16.74;77.50;101332.19;5058323;28;20076;-54
2023/07/19 00:34:01;;;;;;;2.65;2.22;;;;;;;16.72;77.82;101338.69;5062610;28;20040;-51
2023/07/19 00:36:26;;;;;;;5.55;2.20;;;;;;;16.74;77.65;101334.03;5061284;28;20059;-51
2023/07/19 00:38:51;;;;;;;6.07;2.35;;;;;;;16.71;77.84;101327.13;5054079;28;20017;-51
2023/07/19 00:41:18;;;;;;;3.88;2.50;;;;;;;16.68;78.06;101329.25;5055213;28;20059;-52
2023/07/19 00:43:43;;;;;;;5.60;2.15;;;;;;;16.68;77.37;101321.22;5060139;28;20059;-53
2023/07/19 00:46:09;;;;;;;4.82;2.55;;;;;;;16.68;77.64;101321.22;5056473;28;20021;-52
2023/07/19 00:48:35;;;;;;;6.00;2.90;;;;;;;16.57;77.94;101311.47;5059339;28;20029;-51
2023/07/19 00:51:01;;;;;;;4.85;2.53;;;;;;;16.57;77.92;101319.53;5058986;28;20052;-52
2023/07/19 00:53:27;;;;;;;4.72;2.53;;;;;;;16.57;77.98;101312.34;5056632;28;20055;-51
2023/07/19 00:55:53;;;;;;;5.32;2.60;;;;;;;16.54;78.13;101309.13;5060608;28;20202;-54
2023/07/19 00:58:21;;;;;;;5.13;2.63;;;;;;;16.48;78.01;101312.38;5059406;28;20502;-53
2023/07/19 01:00:47;;;;;;;6.20;2.80;;;;;;;16.48;77.72;101313.22;5056335;28;20035;-54
2023/07/19 01:03:12;;;;;;;6.47;3.10;;;;;;;16.45;77.46;101321.53;5057342;28;20339;-55
2023/07/19 01:05:39;;;;;;;7.93;2.88;;;;;;;16.39;78.12;101312.25;5060614;28;20025;-54
2023/07/19 01:08:05;;;;;;;5.68;2.55;;;;;;;16.38;77.97;101315.91;5054069;28;20119;-53
2023/07/19 01:10:31;;;;;;;6.55;3.00;;;;;;;16.38;77.31;101312.38;5064735;28;20523;-54
2023/07/19 01:13:03;;;;;;;6.70;3.03;;;;;;;16.38;77.44;101309.72;5057213;28;20020;-54
2023/07/19 01:15:29;;;;;;;6.03;2.88;;;;;;;16.33;77.58;101309.28;5058015;28;20025;-52
2023/07/19 01:17:54;;;;;;;6.13;3.10;;;;;;;16.29;77.37;101303.38;5059216;28;20058;-51
2023/07/19 01:20:19;;;;;;;5.55;2.75;;;;;;;16.28;77.50;101302.50;5056267;28;20077;-55
2023/07/19 01:22:46;;;;;;;5.43;3.00;;;;;;;16.26;77.82;101309.03;5056934;28;20035;-52
2023/07/19 01:25:12;;;;;;;4.32;2.63;;;;;;;16.20;77.51;101307.75;5060033;28;20024;-54
2023/07/19 01:27:37;;;;;;;4.65;3.10;;;;;;;16.20;78.22;101299.69;5058330;28;20051;-54
2023/07/19 01:30:03;;;;;;;4.05;2.70;;;;;;;16.21;78.70;101303.25;5060962;28;20028;-52
2023/07/19 01:32:28;;;;;;;7.05;3.30;;;;;;;16.20;78.46;101290.81;5055961;28;20083;-53
2023/07/19 01:34:53;;;;;;;4.55;2.70;;;;;;;16.20;78.30;101290.81;5054695;28;20025;-53
2023/07/19 01:37:19;;;;;;;4.45;3.03;;;;;;;16.17;78.88;101291.97;5059159;28;20025;-53
2023/07/19 01:39:45;;;;;;;9.43;3.38;;;;;;;16.16;78.86;101294.78;5061228;28;20020;-52
2023/07/19 01:42:10;;;;;;;7.55;3.40;;;;;;;16.15;78.92;101285.06;5058432;28;20107;-52
2023/07/19 01:44:36;;;;;;;7.13;2.88;;;;;;;16.15;79.03;101279.69;5057374;28;20108;-54
2023/07/19 01:47:01;;;;;;;7.53;3.17;;;;;;;16.17;78.58;101283.94;5060508;28;20139;-51
2023/07/19 01:49:26;;;;;;;4.82;2.83;;;;;;;16.13;79.59;101292.41;5055745;28;20035;-52
2023/07/19 01:51:52;;;;;;;4.45;2.75;;;;;;;16.12;79.60;101288.88;5039165;28;20468;-54
2023/07/19 01:54:17;;;;;;;4.63;3.05;;;;;;;16.13;79.08;101290.56;5057278;28;20025;-52
2023/07/19 01:56:42;;;;;;;5.43;3.17;;;;;;;16.11;79.47;101294.38;5060244;28;20473;-52
2023/07/19 01:59:08;;;;;;;5.32;3.47;;;;;;;16.11;79.37;101295.22;5058831;28;20029;-51
2023/07/19 02:01:33;;;;;;;3.95;3.10;;;;;;;16.05;79.93;101293.97;5056679;28;20020;-53
2023/07/19 02:03:58;;;;;;;6.15;3.13;;;;;;;16.06;79.55;101292.13;5063093;28;20383;-53
2023/07/19 02:06:24;;;;;;;6.72;3.40;;;;;;;16.03;79.43;101284.38;5058079;28;20036;-52
2023/07/19 02:08:49;;;;;;;6.93;3.65;;;;;;;15.97;80.17;101283.13;5051970;28;20060;-52
2023/07/19 02:11:14;;;;;;;3.70;3.17;;;;;;;16.01;79.99;101284.50;5058275;28;20063;-54
2023/07/19 02:13:39;;;;;;;5.47;3.40;;;;;;;15.94;80.84;101286.06;5057616;28;20017;-53
2023/07/19 02:16:05;;;;;;;6.78;3.50;;;;;;;15.94;80.53;101275.34;5060805;28;20027;-54
2023/07/19 02:18:30;;;;;;;6.32;3.92;;;;;;;15.94;79.96;101274.50;5058497;28;20075;-54
2023/07/19 02:20:56;;;;;;;6.55;3.20;;;;;;;15.96;79.97;101267.19;5061695;28;20025;-52
2023/07/19 02:23:21;;;;;;;5.70;3.38;;;;;;;15.91;80.42;101260.41;5053822;28;20075;-54
2023/07/19 02:25:50;;;;;;;5.55;3.40;;;;;;;15.90;80.61;101272.13;5061653;28;20024;-52
2023/07/19 02:28:16;;;;;;;6.10;3.45;;;;;;;15.92;80.75;101277.34;5058628;28;20029;-51
2023/07/19 02:30:45;;;;;;;7.22;3.20;;;;;;;15.93;80.64;101276.34;5062289;28;20104;-54
2023/07/19 02:33:14;;;;;;;7.30;3.72;;;;;;;15.90;81.18;101272.13;5063622;28;20477;-53
2023/07/19 02:35:40;;;;;;;4.90;3.58;;;;;;;15.88;80.87;101267.88;5057540;28;20029;-52
2023/07/19 02:38:05;;;;;;;7.88;3.75;;;;;;;15.90;81.09;101260.53;5058843;28;20364;-51
2023/07/19 02:40:31;;;;;;;5.35;3.88;;;;;;;15.88;80.99;101263.34;5061872;28;20632;-54
2023/07/19 02:42:56;;;;;;;7.30;3.80;;;;;;;15.80;81.37;101262.38;5056800;28;20029;-54
2023/07/19 02:45:24;;;;;;;4.28;3.40;;;;;;;15.89;81.21;101275.78;5058635;28;20393;-53
2023/07/19 02:47:49;;;;;;;6.72;3.42;;;;;;;15.90;81.13;101274.78;5061120;28;20021;-53
2023/07/19 02:50:15;;;;;;;5.65;3.35;;;;;;;15.91;81.11;101278.31;5058691;28;20041;-55
2023/07/19 02:52:41;;;;;;;9.63;4.00;;;;;;;15.89;81.24;101273.09;5058022;28;20032;-53
2023/07/19 02:55:07;;;;;;;4.97;3.88;;;;;;;15.92;80.76;101266.63;5058959;28;20116;-50
2023/07/19 02:57:32;;;;;;;7.22;3.92;;;;;;;15.88;81.88;101262.53;5054517;28;20116;-54
2023/07/19 02:59:57;;;;;;;10.38;4.00;;;;;;;15.92;82.07;101277.34;5058885;28;20029;-51
2023/07/19 03:02:23;;;;;;;5.18;3.97;;;;;;;15.88;82.76;101265.19;5059839;28;20133;-54
2023/07/19 03:04:48;;;;;;;3.97;3.58;;;;;;;15.91;82.53;101267.59;5058592;28;20509;-54
2023/07/19 03:07:14;;;;;;;10.68;3.42;;;;;;;15.88;83.05;101266.03;5064409;28;20032;-52
2023/07/19 03:09:40;;;;;;;6.03;3.88;;;;;;;15.90;83.87;101269.44;5061357;28;20028;-51
2023/07/19 03:12:06;;;;;;;6.85;3.70;;;;;;;15.90;83.71;101279.28;5062724;28;20079;-55
2023/07/19 03:14:31;;;;;;;6.78;3.65;;;;;;;15.89;84.78;101275.78;5058313;28;20103;-54
2023/07/19 03:16:56;;;;;;;7.45;3.65;;;;;;;15.85;85.16;101282.41;5065397;28;20162;-52
2023/07/19 03:19:21;;;;;;;7.32;4.07;;;;;;;15.86;85.52;101276.06;5060868;28;20087;-54
2023/07/19 03:21:47;;;;;;;6.45;4.07;;;;;;;15.85;86.16;101269.03;5061442;28;20086;-52
2023/07/19 03:24:12;;;;;;;7.20;3.78;;;;;;;15.85;86.01;101277.06;5060867;28;20056;-51
2023/07/19 03:26:38;;;;;;;6.43;3.70;;;;;;;15.85;85.66;101278.88;5061136;28;20068;-52
2023/07/19 03:29:03;;;;;;;6.20;3.88;;;;;;;15.81;85.73;101280.16;5058905;28;21329;-52
2023/07/19 03:31:29;;;;;;;7.45;4.13;;;;;;;15.85;86.28;101286.91;5060625;28;20044;-54
2023/07/19 03:33:54;;;;;;;7.03;3.95;;;;;;;15.87;86.45;101288.47;5066659;28;20029;-51
2023/07/19 03:36:19;;;;;;;10.23;4.07;;;;;;;15.85;86.44;101286.91;5063221;28;20033;-51
2023/07/19 03:38:44;;;;;;;5.38;3.70;;;;;;;15.89;87.17;101282.97;5057031;28;20048;-54
2023/07/19 03:41:10;;;;;;;6.20;4.20;;;;;;;15.89;88.15;101289.16;5064606;28;20055;-53
2023/07/19 03:43:36;;;;;;;6.68;3.97;;;;;;;15.85;87.63;101282.41;5063097;28;20029;-54
2023/07/19 03:46:02;;;;;;;5.80;4.35;;;;;;;15.85;88.31;101278.88;5066791;28;20024;-54
2023/07/19 03:48:27;;;;;;;7.78;3.85;;;;;;;15.87;87.66;101285.78;5061950;28;20094;-51
2023/07/19 03:50:57;;;;;;;7.40;3.83;;;;;;;15.87;88.46;101280.44;5062328;28;20037;-54
2023/07/19 03:53:22;;;;;;;5.15;3.70;;;;;;;15.85;89.67;101273.50;5060955;28;20032;-52
2023/07/19 03:55:59;;;;;;;7.22;4.40;;;;;;;15.89;89.47;101288.34;5063041;28;20036;-54
2023/07/19 03:58:25;;;;;;;6.50;4.20;;;;;;;15.89;89.63;101286.50;5058865;28;20031;-55
2023/07/19 04:00:55;;;;;;;5.30;4.13;;;;;;;15.90;89.27;101300.72;5061580;28;20042;-54
2023/07/19 04:03:20;;;;;;;;;;;;;;;16.00;85.37;101290.84;5062314;28;20032;-52
2023/07/19 04:05:46;;;;;;;6.88;4.40;;;;;;;15.95;88.81;101286.91;5059323;28;19958;-52
2023/07/19 04:08:13;;;;;;;7.50;3.88;;;;;;;15.89;88.67;101281.13;5055201;28;20389;-55
2023/07/19 04:10:38;;;;;;;8.30;4.30;;;;;;;15.90;89.19;101279.28;5065055;28;20033;-54
2023/07/19 04:13:04;;;;;;;6.60;4.20;;;;;;;15.95;89.39;101284.22;5059658;28;20142;-55
2023/07/19 04:15:30;;;;;;;6.63;4.30;;;;;;;15.96;89.11;101283.25;5058777;28;20032;-55
2023/07/19 04:17:55;;;;;;;8.48;4.53;;;;;;;15.95;87.74;101284.22;5059624;28;20028;-52
2023/07/19 04:20:22;;;;;;;7.75;4.70;;;;;;;15.96;87.06;101280.56;5063121;28;20093;-53
2023/07/19 04:22:48;;;;;;;8.52;4.53;;;;;;;15.96;87.12;101284.09;5057775;28;20033;-54
2023/07/19 04:25:13;;;;;;;8.25;4.70;;;;;;;15.95;86.91;101284.22;5060638;28;20389;-55
2023/07/19 04:27:38;;;;;;;8.20;4.95;;;;;;;15.98;87.83;101283.94;5061437;28;20443;-55
2023/07/19 04:30:04;;;;;;;8.68;5.07;;;;;;;15.97;87.17;101283.13;5059594;28;20021;-55
2023/07/19 04:32:30;;;;;;;8.32;4.70;;;;;;;16.01;87.28;101281.00;5064437;28;20109;-55
2023/07/19 04:34:55;;;;;;;7.10;4.43;;;;;;;16.00;86.93;101284.66;5063097;28;20138;-52
2023/07/19 04:37:21;;;;;;;7.38;5.05;;;;;;;16.01;87.44;101287.19;5059649;28;20068;-54
2023/07/19 04:39:46;;;;;;;12.27;4.70;;;;;;;16.03;86.81;101295.91;5060203;28;20469;-54
2023/07/19 04:42:12;;;;;;;10.77;4.70;;;;;;;16.06;88.13;101292.97;5056883;28;20116;-52
2023/07/19 04:44:38;;;;;;;6.57;4.78;;;;;;;16.04;87.66;101297.63;5065024;28;20020;-53
2023/07/19 04:47:04;;;;;;;6.50;4.80;;;;;;;16.11;88.33;101297.06;5055814;28;20446;-55
2023/07/19 04:49:30;;;;;;;9.40;5.28;;;;;;;16.09;88.10;101292.69;5059905;28;20056;-54
2023/07/19 04:51:55;;;;;;;9.23;5.00;;;;;;;16.08;89.07;101290.97;5058745;28;20067;-55
2023/07/19 04:54:20;;;;;;;7.35;4.68;;;;;;;16.12;87.90;101307.66;5059626;28;20466;-53
2023/07/19 04:56:46;;;;;;;9.00;5.03;;;;;;;16.14;88.83;101304.78;5065748;28;20127;-53
2023/07/19 04:59:12;;;;;;;6.07;4.80;;;;;;;16.15;89.04;101307.31;5058691;28;20044;-52
2023/07/19 05:01:38;;;;;;;7.78;4.70;;;;;;;16.19;88.02;101310.59;5056394;28;20389;-54
2023/07/19 05:04:03;;;;;;;8.95;4.70;;;;;;;16.20;87.47;101306.91;5059187;28;20027;-51
2023/07/19 05:06:29;;;;;;;7.72;4.97;;;;;;;16.19;88.97;101308.75;5057112;28;20039;-54
2023/07/19 05:08:54;;;;;;;9.55;5.10;;;;;;;16.21;88.39;101304.09;5059449;28;20331;-52
2023/07/19 05:11:20;;;;;;;7.05;4.78;;;;;;;16.23;87.63;101306.63;5058036;28;20082;-55
2023/07/19 05:13:46;;;;;;;8.48;5.43;;;;;;;16.24;89.00;101297.59;5060263;28;20047;-55
2023/07/19 05:16:11;;;;;;;12.90;5.70;;;;;;;16.28;87.53;101304.34;5061744;28;20107;-53
2023/07/19 05:18:37;;;;;;;6.25;4.65;;;;;;;16.33;86.97;101301.25;5059353;28;20021;-55
2023/07/19 05:21:02;;;;;;;9.30;5.32;;;;;;;16.35;86.80;101294.75;5063262;28;20113;-54
2023/07/19 05:23:27;;;;;;;10.07;5.28;;;;;;;16.41;87.87;101301.38;5061201;28;20031;-54
2023/07/19 05:25:53;;;;;;;9.25;5.50;;;;;;;16.46;88.64;101297.25;5054909;28;20071;-55
2023/07/19 05:28:20;;;;;;;11.88;5.30;;;;;;;16.51;88.74;101307.56;5060925;28;20144;-55
2023/07/19 05:30:45;;;;;;;6.10;5.45;;;;;;;16.61;88.64;101302.16;5063473;28;20024;-54
2023/07/19 05:33:11;;;;;;;8.40;5.82;;;;;;;16.67;88.88;101300.72;5058769;28;20052;-53
2023/07/19 05:35:37;;;;;;;6.72;5.35;;;;;;;16.75;87.19;101295.47;5057282;28;20039;-54
2023/07/19 05:38:03;;;;;;;9.93;5.65;;;;;;;16.82;88.44;101291.25;5060464;28;20020;-53
2023/07/19 05:40:30;;;;;;;11.85;5.97;;;;;;;16.91;88.01;101293.06;5054811;28;20029;-56
2023/07/19 05:42:56;;;;;;;9.70;6.00;;;;;;;16.98;87.09;101291.44;5057334;28;20807;-56
2023/07/19 05:45:21;;;;;;;9.40;5.55;;;;;;;17.03;87.81;101288.34;5059444;28;20111;-55
2023/07/19 05:47:47;;;;;;;8.68;5.97;;;;;;;17.09;85.42;101282.38;5064204;28;20170;-56
2023/07/19 05:50:13;;;;;;;10.45;6.07;;;;;;;17.17;86.51;101293.22;5059902;28;20502;-56
2023/07/19 05:52:39;;;;;;;10.27;5.85;;;;;;;17.28;87.00;101302.88;5061817;28;20118;-56
2023/07/19 05:55:08;;;;;;;8.05;5.65;;;;;;;17.35;85.99;101293.25;5056862;28;20028;-55
2023/07/19 05:57:34;;;;;;;10.82;5.55;;;;;;;17.47;86.34;101290.31;5053932;28;20442;-58
2023/07/19 06:00:13;;;;;;;8.50;5.07;;;;;;;17.53;83.84;101298.63;5059159;28;20065;-53
2023/07/19 06:02:39;;;;;;;11.90;6.20;;;;;;;17.66;82.88;101300.94;5057608;28;20612;-56
2023/07/19 06:05:05;;;;;;;8.25;5.25;;;;;;;17.76;83.46;101295.50;5051346;28;20033;-57
2023/07/19 06:07:30;;;;;;;10.07;5.70;;;;;;;17.81;83.27;101292.34;5055780;28;20066;-55
2023/07/19 06:09:55;;;;;;;9.27;5.28;;;;;;;17.86;81.67;101292.72;5059776;28;20032;-54
2023/07/19 06:12:21;;;;;;;14.37;5.67;;;;;;;17.91;81.96;101293.97;5059144;28;20464;-53
2023/07/19 06:14:46;;;;;;;8.50;5.28;;;;;;;18.04;81.72;101298.13;5054701;28;20287;-55
2023/07/19 06:17:11;;;;;;;9.55;5.65;;;;;;;18.17;81.35;101298.56;5053552;28;20039;-56
2023/07/19 06:19:37;;;;;;;9.07;5.40;;;;;;;18.30;79.94;101301.69;5061971;28;20445;-55
2023/07/19 06:22:02;;;;;;;11.15;5.43;;;;;;;18.42;80.54;101296.06;5056388;28;20592;-57
2023/07/19 06:24:27;;;;;;;10.30;4.88;;;;;;;18.51;78.73;101292.41;5052339;28;20029;-55
2023/07/19 06:26:53;;;;;;;8.88;5.13;;;;;;;18.59;77.84;101294.31;5059668;28;20086;-56
2023/07/19 06:29:19;;;;;;;10.27;5.68;;;;;;;18.65;77.83;101286.44;5057712;28;20028;-54
2023/07/19 06:31:44;;;;;;;10.38;5.40;;;;;;;18.70;77.27;101290.50;5055644;28;20044;-56
2023/07/19 06:34:10;;;;;;;10.38;5.47;;;;;;;18.76;75.94;101282.63;5052214;28;20116;-56
2023/07/19 06:36:35;;;;;;;10.00;5.28;;;;;;;18.82;76.46;101290.06;5052002;28;20101;-54
2023/07/19 06:39:00;;;;;;;11.00;5.60;;;;;;;18.90;77.29;101289.31;5057472;28;20116;-51
2023/07/19 06:41:25;;;;;;;12.52;5.60;;;;;;;18.96;74.28;101290.50;5061455;28;20497;-51
2023/07/19 06:43:51;;;;;;;10.80;5.10;;;;;;;19.01;74.98;101294.38;5061524;28;20430;-53
2023/07/19 06:46:16;;;;;;;10.65;5.45;;;;;;;19.11;75.26;101293.41;5059742;28;20358;-51
2023/07/19 06:48:42;;;;;;;9.30;5.45;;;;;;;19.38;75.83;101292.31;5063485;28;20025;-52
2023/07/19 06:51:07;;;;;;;7.00;4.88;;;;;;;19.55;73.02;101290.50;5058308;28;20035;-51
2023/07/19 06:53:33;;;;;;;10.07;4.78;;;;;;;19.84;74.42;101286.53;5059608;28;20025;-52
2023/07/19 06:55:59;;;;;;;11.68;5.55;;;;;;;20.09;73.02;101296.28;5060290;28;20041;-52
2023/07/19 06:58:24;;;;;;;8.57;5.20;;;;;;;20.36;71.18;101296.09;5060841;28;20035;-54
2023/07/19 07:00:53;;;;;;;12.43;4.80;;;;;;;20.69;70.88;101286.94;5055415;28;20028;-54
2023/07/19 07:03:18;;;;;;;9.27;4.88;;;;;;;20.88;69.84;101299.22;5060533;28;20024;-50
2023/07/19 07:05:45;;;;;;;9.25;4.70;;;;;;;21.13;68.43;101303.66;5057251;28;20054;-50
2023/07/19 07:08:10;;;;;;;9.18;4.80;;;;;;;21.30;67.02;101296.31;5058928;28;20024;-52
2023/07/19 07:10:35;;;;;;;7.53;4.53;;;;;;;21.54;68.49;101303.47;5060331;28;20029;-54
2023/07/19 07:13:01;;;;;;;9.80;4.70;;;;;;;21.61;66.48;101302.56;5056825;28;20286;-54
2023/07/19 07:15:26;;;;;;;10.30;4.32;;;;;;;21.62;64.65;101309.66;5057755;28;20652;-51
2023/07/19 07:17:51;;;;;;;7.63;3.70;;;;;;;21.69;64.88;101306.25;5055348;28;20417;-54
2023/07/19 07:20:17;;;;;;;7.33;4.17;;;;;;;21.61;63.96;101309.84;5062251;28;20290;-54
2023/07/19 07:22:42;;;;;;;12.00;4.25;;;;;;;21.66;63.54;101306.59;5064795;28;20602;-51
2023/07/19 07:25:08;;;;;;;8.10;4.10;;;;;;;21.75;64.01;101308.22;5060994;28;20044;-51
2023/07/19 07:27:34;;;;;;;7.80;4.28;;;;;;;21.72;63.88;101303.19;5057094;28;20541;-53
2023/07/19 07:29:59;;;;;;;10.57;4.68;;;;;;;21.67;66.10;101300.19;5054869;28;20094;-51
2023/07/19 07:32:25;;;;;;;8.00;3.80;;;;;;;21.66;63.69;101298.50;5064302;28;20137;-51
2023/07/19 07:34:50;;;;;;;7.63;3.65;;;;;;;21.70;63.30;101305.22;5059674;28;20025;-51
2023/07/19 07:37:15;;;;;;;9.82;3.53;;;;;;;21.72;63.16;101295.09;5064114;28;20119;-51
2023/07/19 07:39:41;;;;;;;6.45;3.50;;;;;;;21.83;63.73;101291.94;5057243;28;20112;-50
2023/07/19 07:42:06;;;;;;;7.60;3.35;;;;;;;21.88;64.55;101292.22;5063865;28;20524;-50
2023/07/19 07:44:32;;;;;;;6.07;3.10;;;;;;;21.99;62.45;101290.97;5057326;28;20060;-48
2023/07/19 07:46:57;;;;;;;11.27;3.40;;;;;;;22.02;62.70;101293.31;5059845;28;20052;-48
2023/07/19 07:49:23;;;;;;;10.50;3.78;;;;;;;21.98;62.05;101292.84;5058861;28;20028;-51
2023/07/19 07:51:48;;;;;;;7.72;3.88;;;;;;;21.93;62.06;101291.69;5059901;28;20031;-53
2023/07/19 07:54:14;;;;;;;6.20;3.30;;;;;;;21.97;63.01;101290.31;5058985;28;20429;-53
2023/07/19 07:56:39;;;;;;;5.70;3.05;;;;;;;21.98;61.42;101295.56;5059112;28;20048;-52
2023/07/19 07:59:04;;;;;;;7.18;2.85;;;;;;;21.99;61.22;101289.09;5061248;28;20028;-51
2023/07/19 08:01:30;;;;;;;7.95;3.15;;;;;;;22.16;60.31;101295.19;5060469;28;20032;-54
2023/07/19 08:03:55;;;;;;;6.60;3.05;;;;;;;22.12;59.88;101293.91;5063402;28;20539;-56
2023/07/19 08:06:20;;;;;;;7.60;2.30;;;;;;;22.21;57.48;101286.53;5060069;28;20106;-51
2023/07/19 08:08:46;;;;;;;6.70;2.53;;;;;;;22.22;59.04;101290.94;5062198;28;20305;-57
2023/07/19 08:11:11;;;;;;;7.18;3.28;;;;;;;22.50;59.22;101284.97;5059463;28;20036;-53
2023/07/19 08:13:36;;;;;;;10.35;3.63;;;;;;;22.87;58.80;101277.75;5063703;28;20109;-51
2023/07/19 08:16:06;;;;;;;8.07;3.42;;;;;;;23.05;56.82;101280.06;5056011;28;20442;-52
2023/07/19 08:18:31;;;;;;;8.98;3.47;;;;;;;23.34;57.06;101270.22;5063882;28;20025;-53
2023/07/19 08:20:56;;;;;;;6.85;3.05;;;;;;;23.57;55.44;101267.34;5060170;28;20108;-53
2023/07/19 08:23:22;;;;;;;6.63;3.63;;;;;;;23.73;54.32;101268.94;5062406;28;20025;-52
2023/07/19 08:25:54;;;;;;;5.28;2.60;;;;;;;23.87;54.59;101259.09;5065055;28;20287;-53
2023/07/19 08:28:19;;;;;;;7.70;2.97;;;;;;;23.90;52.47;101269.53;5065251;28;21033;-53
2023/07/19 08:30:44;;;;;;;5.97;2.50;;;;;;;24.04;52.43;101276.75;5055366;28;20421;-53
2023/07/19 08:33:10;;;;;;;6.97;2.28;;;;;;;24.00;52.10;101270.88;5054505;28;20486;-53
2023/07/19 08:35:35;;;;;;;8.60;2.80;;;;;;;23.92;52.35;101267.47;5057983;28;20021;-54
2023/07/19 08:38:00;;;;;;;8.93;2.80;;;;;;;23.93;52.43;101277.28;5060850;28;20332;-53
2023/07/19 08:40:30;;;;;;;8.52;2.83;;;;;;;23.91;53.61;101268.50;5054027;28;20048;-51
2023/07/19 08:42:56;;;;;;;6.05;2.97;;;;;;;23.86;54.01;101268.25;5055765;28;20028;-53
2023/07/19 08:45:23;;;;;;;9.85;2.70;;;;;;;24.01;54.72;101271.72;5059472;28;20474;-51
2023/07/19 08:47:50;;;;;;;7.43;2.83;;;;;;;24.02;52.35;101270.69;5054062;28;20033;-52
2023/07/19 08:50:16;;;;;;;6.85;2.78;;;;;;;24.26;52.09;101271.28;5060967;28;20291;-53
2023/07/19 08:52:42;;;;;;;5.65;2.40;;;;;;;24.31;51.76;101269.66;5059020;28;20120;-53
2023/07/19 08:55:08;;;;;;;4.38;2.80;;;;;;;24.37;51.83;101268.88;5057871;28;20025;-54
2023/07/19 08:57:38;;;;;;;6.53;2.50;;;;;;;24.58;52.13;101277.16;5058009;28;20481;-52
2023/07/19 09:00:04;;;;;;;4.53;2.42;;;;;;;24.87;51.58;101271.47;5057681;28;20029;-52
2023/07/19 09:02:30;;;;;;;7.30;3.03;;;;;;;25.05;49.36;101276.38;5055592;28;20025;-51
2023/07/19 09:05:12;;;;;;;4.18;2.70;;;;;;;25.18;50.54;101267.44;5057889;28;20033;-53
2023/07/19 09:07:38;;;;;;;8.55;2.35;;;;;;;25.46;51.39;101269.19;5032933;28;20037;-53
2023/07/19 09:10:09;;;;;;;8.32;2.63;;;;;;;25.65;50.29;101264.84;5058571;28;20305;-51
2023/07/19 09:12:41;;;;;;;7.47;2.95;;;;;;;25.92;49.19;101262.97;5058788;28;20063;-51
2023/07/19 09:15:08;;;;;;;12.02;3.22;;;;;;;25.74;48.36;101268.19;5059215;28;20110;-51
2023/07/19 09:17:42;;;;;;;5.97;2.97;;;;;;;25.73;49.83;101275.53;5060182;28;20033;-53
2023/07/19 09:20:08;;;;;;;6.10;2.95;;;;;;;25.71;48.81;101279.50;5061236;28;20365;-52
2023/07/19 09:22:36;;;;;;;8.77;2.80;;;;;;;25.80;49.59;101278.25;5053812;28;20360;-51
2023/07/19 09:25:03;;;;;;;7.30;2.55;;;;;;;25.77;49.14;101270.50;5058874;28;20028;-50
2023/07/19 09:27:29;;;;;;;5.00;2.70;;;;;;;25.80;49.81;101261.94;5057641;28;20107;-50
2023/07/19 09:29:54;;;;;;;4.78;2.60;;;;;;;25.78;48.97;101253.13;5058383;28;20108;-50
2023/07/19 09:32:19;;;;;;;5.33;2.30;;;;;;;25.93;47.23;101267.38;5057979;28;20528;-53
2023/07/19 09:34:45;;;;;;;5.13;2.40;;;;;;;26.24;48.52;101263.19;5060345;28;20316;-50
2023/07/19 09:37:11;;;;;;;4.95;2.20;;;;;;;26.13;47.41;101261.09;5058308;28;20499;-50
2023/07/19 09:39:37;;;;;;;4.00;2.13;;;;;;;26.11;47.75;101263.19;5062287;28;20033;-51
2023/07/19 09:42:03;;;;;;;6.53;2.05;;;;;;;26.20;47.04;101267.38;5061748;28;20115;-52
2023/07/19 09:44:29;;;;;;;6.95;2.45;;;;;;;26.02;47.35;101265.31;5056555;28;20017;-50
2023/07/19 09:46:54;;;;;;;5.35;2.28;;;;;;;25.92;47.89;101265.69;5063128;28;20525;-50
2023/07/19 09:49:20;;;;;;;7.57;2.47;;;;;;;25.93;48.12;101264.66;5057020;28;20132;-50
2023/07/19 09:51:47;;;;;;;4.45;2.17;;;;;;;25.86;47.97;101269.22;5057558;28;20540;-51
2023/07/19 09:54:13;;;;;;;5.00;2.30;;;;;;;25.84;48.39;101265.91;5057089;28;20044;-50
2023/07/19 09:56:40;;;;;;;6.45;2.22;;;;;;;25.71;49.68;101269.44;5057277;28;20047;-52
2023/07/19 09:59:10;;;;;;;4.90;2.30;;;;;;;25.58;48.86;101267.56;5056900;28;20478;-51
2023/07/19 10:01:37;;;;;;;7.15;2.42;;;;;;;25.49;48.52;101266.06;5058744;28;20037;-55
2023/07/19 10:04:27;;;;;;;3.55;1.95;;;;;;;25.55;49.74;101264.41;5059618;28;20021;-53
2023/07/19 10:07:03;;;;;;;5.88;2.13;;;;;;;25.44;49.68;101269.38;5058175;28;20029;-51
2023/07/19 10:09:29;;;;;;;4.55;2.22;;;;;;;25.52;49.75;101267.53;5057123;28;20109;-52
2023/07/19 10:11:58;;;;;;;5.37;2.00;;;;;;;25.43;48.62;101266.88;5056496;28;20025;-52
2023/07/19 10:14:27;;;;;;;5.57;2.10;;;;;;;25.36;48.49;101269.56;5060311;28;20036;-52
2023/07/19 10:16:57;;;;;;;9.02;2.30;;;;;;;25.36;48.76;101269.56;5055363;28;20428;-52
2023/07/19 10:19:23;;;;;;;4.10;1.95;;;;;;;25.37;51.21;101265.81;5056572;28;20025;-51
2023/07/19 10:22:03;;;;;;;10.32;2.20;;;;;;;25.51;50.21;101263.97;5060081;28;20035;-50
2023/07/19 10:24:29;;;;;;;6.93;2.47;;;;;;;25.52;49.44;101264.81;5058023;28;20412;-53
2023/07/19 10:26:55;;;;;;;4.53;1.75;;;;;;;25.41;48.20;101271.69;5061533;28;20080;-53
2023/07/19 10:29:24;;;;;;;5.32;2.00;;;;;;;25.40;47.18;101270.03;5062345;28;20040;-50
2023/07/19 10:31:50;;;;;;;4.38;1.70;;;;;;;25.57;48.19;101268.59;5057162;28;20124;-53
2023/07/19 10:34:15;;;;;;;5.90;1.90;;;;;;;25.74;46.91;101263.56;5061689;28;20074;-53
2023/07/19 10:36:47;;;;;;;3.63;1.70;;;;;;;25.86;46.97;101255.63;5060391;28;20032;-52
2023/07/19 10:39:12;;;;;;;4.75;1.60;;;;;;;25.89;45.87;101262.56;5058044;28;20028;-54
2023/07/19 10:41:38;;;;;;;4.07;1.60;;;;;;;25.78;45.84;101269.44;5051972;28;20373;-52
2023/07/19 10:44:03;;;;;;;6.45;1.80;;;;;;;25.77;45.67;101265.06;5061551;28;20086;-51
2023/07/19 10:46:29;;;;;;;3.45;1.33;;;;;;;25.82;47.02;101257.94;5060549;28;20089;-52
2023/07/19 10:48:55;;;;;;;6.32;1.80;;;;;;;25.77;45.91;101260.44;5060578;28;20061;-50
2023/07/19 10:51:20;;;;;;;6.57;1.80;;;;;;;25.88;45.48;101266.31;5057238;28;20500;-53
2023/07/19 10:53:58;;;;;;;3.30;1.30;;;;;;;26.15;45.76;101257.13;5056774;28;20029;-50
2023/07/19 10:56:25;;;;;;;3.83;1.65;;;;;;;26.20;45.80;101254.59;5058175;28;20033;-53
2023/07/19 10:58:50;;;;;;;3.97;1.52;;;;;;;26.14;46.93;101249.16;5057872;28;20029;-51
2023/07/19 11:01:16;;;;;;;8.25;2.00;;;;;;;26.00;47.04;101260.06;5060762;28;20462;-51
2023/07/19 11:03:46;;;;;;;4.30;1.92;;;;;;;25.89;48.41;101271.53;5062423;28;20025;-50
2023/07/19 11:06:12;;;;;;;10.20;2.13;;;;;;;25.56;55.58;101271.50;5060619;28;20025;-53
2023/07/19 11:08:37;;;;;;;9.10;1.77;;;;;;;25.38;57.85;101266.66;5060478;28;20041;-52
2023/07/19 11:11:03;;;;;;;3.20;1.80;;;;;;;25.61;56.65;101260.84;5056669;28;20170;-51
2023/07/19 11:13:30;;;;;;;6.25;2.05;;;;;;;26.02;54.67;101255.25;5061246;28;20130;-51
2023/07/19 11:15:57;;;;;;;6.00;1.80;;;;;;;26.13;57.59;101251.06;5060741;28;20039;-51
2023/07/19 11:18:35;;;;;;;6.00;1.60;;;;;;;26.18;56.15;101253.13;5050301;28;20168;-50